Aeroporto :
LOGIN :

Iscrizione | Disclaimer

   EN    FR    IT 

 










Sommario :    VFR   VFR Marginale   IFR   IFR Intensivo   IFR Molto Intensivo
Visibilità : 
Base nubi : 
>= 8 km
>= 3000ft
5 / 8 km
1000 / 3000 ft
1500m / 5 km
500 / 1000 ft
800 / 1500m
200 / 500 ft
< 800m
< 200 ft
Simboli :   Temporali  Nebbia  Neve Forte  Precipitazioni Forti  Vento > 20 kt
SIGMETs :   Varie  Temporali  Ghiacco  Turbolenza  Onda orograficha  Ceneri Vulcaniche






- Altitudine del aeroporto : 157 ft
- Codice IATA : SXF


EDDB - Berlin Schönefeld

ULTIMO METAR :
  • 242220Z 24008KT 4800 BR BKN004 M00/M01 Q1021 NOSIG

METARs OBSOLETI :
  • 242150Z 26009KT 4800 BR BKN004 M00/M01 Q1021 NOSIG
  • 242120Z 26008KT 230V290 5000 BR BKN005 M00/M01 Q1021 BECMG 4000 BR BKN004
  • 242050Z 26008KT 6000 BKN006 M00/M01 Q1021 BECMG 4000 BR BKN004
  • 242020Z 27009KT 9999 BKN006 00/M01 Q1021 NOSIG
  • 241950Z 27011KT 9999 BKN007 00/M01 Q1021 NOSIG
  • 241920Z 27008KT 9999 BKN007 00/M01 Q1021 NOSIG

TAF TAF EDDB
Valido dal 24 a 18 ore il 25 a 18 ore UTC


241700Z 2418/2518 23006KT 7000 SCT010
BECMG 2418/2422 BKN006
TEMPO 2419/2508 2000 BR BKN003
BECMG 2512/2515 SCT010 BKN020
TEMPO 2515/2518 4500 BR BKN009



MetMap, La meteo Aeronautica in un colpo d'occhio ! - Copyright ORBIFLY Dicembre 2007 - Disclaimer

ORBIFLY MET'MAP TEAM :

Programmazione e sviluppo : Alexandra Zaïnal
Concezione : Baudouin d'Aumeries
Aiuto per la programmazione : Marc-Olivier Méhu
Supporto tecnico e logistico : Manuel Goepfert
Aiuto per la traduzione : Arnaldo La Scala

Contatto : metmap@orbifly.com




FONTI E CREDITI :

   NOAA